createdAt,value
2018-03-29T00:00:44.002Z,2.27
2018-03-29T00:03:09.786Z,2.21
2018-03-29T00:05:35.583Z,2.28
2018-03-29T00:08:01.368Z,2.30
2018-03-29T00:10:27.168Z,1.94
2018-03-29T00:12:52.979Z,2.19
2018-03-29T00:15:18.788Z,2.41
2018-03-29T00:17:44.924Z,2.05
2018-03-29T00:20:10.717Z,1.90
2018-03-29T00:22:36.507Z,2.05
2018-03-29T00:25:02.463Z,2.00
2018-03-29T00:27:28.250Z,2.05
2018-03-29T00:29:54.056Z,2.27
2018-03-29T00:32:19.875Z,1.85
2018-03-29T00:34:45.679Z,1.97
2018-03-29T00:37:11.480Z,1.92
2018-03-29T00:39:37.298Z,1.87
2018-03-29T00:42:03.087Z,1.94
2018-03-29T00:44:28.894Z,2.28
2018-03-29T00:46:54.678Z,2.34
2018-03-29T00:49:21.274Z,1.93
2018-03-29T00:51:47.091Z,1.86
2018-03-29T00:54:12.882Z,2.06
2018-03-29T00:56:38.681Z,1.92
2018-03-29T00:59:04.491Z,2.07
2018-03-29T01:01:30.280Z,2.33
2018-03-29T01:03:56.064Z,2.12
2018-03-29T01:06:21.864Z,1.95
2018-03-29T01:08:47.654Z,2.23
2018-03-29T01:11:13.499Z,2.05
2018-03-29T01:13:39.284Z,2.20
2018-03-29T01:16:05.091Z,2.07
2018-03-29T01:18:30.894Z,1.70
2018-03-29T01:20:56.779Z,1.54
2018-03-29T01:23:22.570Z,1.73
2018-03-29T01:25:48.384Z,1.61
2018-03-29T01:28:14.203Z,1.83
2018-03-29T01:30:40.008Z,1.95
2018-03-29T01:33:05.786Z,1.83
2018-03-29T01:35:31.573Z,1.52
2018-03-29T01:37:57.372Z,1.54
2018-03-29T01:40:23.165Z,2.10
2018-03-29T01:42:48.971Z,2.43
2018-03-29T01:45:15.109Z,2.52
2018-03-29T01:47:40.970Z,2.46
2018-03-29T01:50:06.774Z,2.38
2018-03-29T01:52:32.587Z,2.52
2018-03-29T01:54:58.404Z,2.37
2018-03-29T01:57:24.211Z,2.44
2018-03-29T01:59:50.011Z,2.05
2018-03-29T02:02:15.811Z,2.40
2018-03-29T02:04:41.605Z,2.07
2018-03-29T02:07:07.421Z,2.02
2018-03-29T02:09:33.236Z,2.05
2018-03-29T02:11:59.028Z,2.06
2018-03-29T02:14:24.855Z,1.98
2018-03-29T02:16:50.655Z,2.17
2018-03-29T02:19:16.462Z,2.05
2018-03-29T02:21:42.270Z,2.19
2018-03-29T02:24:08.114Z,1.97
2018-03-29T02:26:33.946Z,1.92
2018-03-29T02:28:59.729Z,2.32
2018-03-29T02:31:25.539Z,2.50
2018-03-29T02:33:51.364Z,2.21
2018-03-29T02:36:17.162Z,2.10
2018-03-29T02:38:42.974Z,2.36
2018-03-29T02:41:08.784Z,2.25
2018-03-29T02:43:34.559Z,2.15
2018-03-29T02:46:00.355Z,2.54
2018-03-29T02:48:26.168Z,2.01
2018-03-29T02:50:51.986Z,1.94
2018-03-29T02:53:17.801Z,1.93
2018-03-29T02:55:43.621Z,1.93
2018-03-29T02:58:09.415Z,1.93
2018-03-29T03:00:35.268Z,1.99
2018-03-29T03:03:01.211Z,1.74
2018-03-29T03:05:26.999Z,2.16
2018-03-29T03:07:52.803Z,2.03
2018-03-29T03:10:18.591Z,1.90
2018-03-29T03:12:44.387Z,1.59
2018-03-29T03:15:10.169Z,1.43
2018-03-29T03:17:35.958Z,1.62
2018-03-29T03:20:01.798Z,1.32
2018-03-29T03:22:27.575Z,1.22
2018-03-29T03:24:53.365Z,1.27
2018-03-29T03:27:19.180Z,1.26
2018-03-29T03:29:44.966Z,1.14
2018-03-29T03:32:10.746Z,1.17
2018-03-29T03:34:36.532Z,1.22
2018-03-29T03:37:02.366Z,1.19
2018-03-29T03:39:28.157Z,1.21
2018-03-29T03:41:53.939Z,1.06
2018-03-29T03:44:19.736Z,1.19
2018-03-29T03:46:45.543Z,1.23
2018-03-29T03:49:11.321Z,1.00
2018-03-29T03:51:37.130Z,1.06
2018-03-29T03:54:02.947Z,0.93
2018-03-29T03:56:28.749Z,1.09
2018-03-29T03:58:54.543Z,1.09
2018-03-29T04:01:20.370Z,1.04
2018-03-29T04:03:46.195Z,1.06
2018-03-29T04:06:12.016Z,1.06
2018-03-29T04:08:37.799Z,1.03
2018-03-29T04:11:03.598Z,1.14
2018-03-29T04:13:29.394Z,1.16
2018-03-29T04:15:55.198Z,1.23
2018-03-29T04:18:21.016Z,1.07
2018-03-29T04:20:46.804Z,1.13
2018-03-29T04:23:12.595Z,1.11
2018-03-29T04:25:38.399Z,1.03
2018-03-29T04:28:04.204Z,0.98
2018-03-29T04:30:30.095Z,1.10
2018-03-29T04:32:55.877Z,0.99
2018-03-29T04:35:21.680Z,1.01
2018-03-29T04:37:47.489Z,0.96
2018-03-29T04:40:13.275Z,1.10
2018-03-29T04:42:39.066Z,2.08
2018-03-29T04:45:04.858Z,1.32
2018-03-29T04:47:30.920Z,1.25
2018-03-29T04:49:56.714Z,1.21
2018-03-29T04:52:22.534Z,1.20
2018-03-29T04:54:48.333Z,0.96
2018-03-29T04:57:14.128Z,1.03
2018-03-29T04:59:40.250Z,1.13
2018-03-29T05:02:06.043Z,1.03
2018-03-29T05:04:31.837Z,1.05
2018-03-29T05:06:57.654Z,0.91
2018-03-29T05:09:23.443Z,0.98
2018-03-29T05:11:49.252Z,1.18
2018-03-29T05:14:15.043Z,1.01
2018-03-29T05:16:40.832Z,0.93
2018-03-29T05:19:06.667Z,0.87
2018-03-29T05:21:32.475Z,0.88
2018-03-29T05:23:58.267Z,1.77
2018-03-29T05:26:24.093Z,1.15
2018-03-29T05:28:49.879Z,1.01
2018-03-29T05:31:15.684Z,1.10
2018-03-29T05:33:41.502Z,1.11
2018-03-29T05:36:07.288Z,0.91
2018-03-29T05:38:33.094Z,1.04
2018-03-29T05:40:59.196Z,1.02
2018-03-29T05:43:24.985Z,1.14
2018-03-29T05:45:50.796Z,0.97
2018-03-29T05:48:16.614Z,1.16
2018-03-29T05:50:42.412Z,1.18
2018-03-29T05:53:08.202Z,1.22
2018-03-29T05:55:34.017Z,1.11
2018-03-29T05:57:59.815Z,1.20
2018-03-29T06:00:25.598Z,1.45
2018-03-29T06:02:51.403Z,1.35
2018-03-29T06:05:17.195Z,1.37
2018-03-29T06:07:43.003Z,1.39
2018-03-29T06:10:08.808Z,1.24
2018-03-29T06:12:34.607Z,1.25
2018-03-29T06:15:06.513Z,1.41
2018-03-29T06:17:32.310Z,1.21
2018-03-29T06:19:58.129Z,1.05
2018-03-29T06:22:23.952Z,1.05
2018-03-29T06:24:49.740Z,1.08
2018-03-29T06:27:15.536Z,1.02
2018-03-29T06:29:41.335Z,1.16
2018-03-29T06:32:07.122Z,1.04
2018-03-29T06:34:32.923Z,0.91
2018-03-29T06:36:58.739Z,1.05
2018-03-29T06:39:24.564Z,1.14
2018-03-29T06:41:50.366Z,1.25
2018-03-29T06:44:16.142Z,1.20
2018-03-29T06:46:41.950Z,1.14
2018-03-29T06:49:08.131Z,1.17
2018-03-29T06:51:33.907Z,1.06
2018-03-29T06:53:59.699Z,1.22
2018-03-29T06:56:25.519Z,1.15
2018-03-29T06:58:51.333Z,1.22
2018-03-29T07:01:17.136Z,1.13
2018-03-29T07:03:42.935Z,1.30
2018-03-29T07:06:08.746Z,1.27
2018-03-29T07:08:34.544Z,1.15
2018-03-29T07:11:00.338Z,1.25
2018-03-29T07:13:26.131Z,1.19
2018-03-29T07:15:51.916Z,1.23
2018-03-29T07:18:17.747Z,1.12
2018-03-29T07:20:43.555Z,1.36
2018-03-29T07:23:09.343Z,1.49
2018-03-29T07:25:35.145Z,1.53
2018-03-29T07:28:00.937Z,1.36
2018-03-29T07:30:26.761Z,1.38
2018-03-29T07:32:52.600Z,1.37
2018-03-29T07:35:18.405Z,1.48
2018-03-29T07:37:44.219Z,1.45
2018-03-29T07:40:10.318Z,1.61
2018-03-29T07:42:36.118Z,1.49
2018-03-29T07:45:01.905Z,1.45
2018-03-29T07:47:27.722Z,1.52
2018-03-29T07:49:53.507Z,1.63
2018-03-29T07:52:19.287Z,1.53
2018-03-29T07:54:45.094Z,1.67
2018-03-29T07:57:10.885Z,1.75
2018-03-29T07:59:36.679Z,1.66
2018-03-29T08:02:02.508Z,1.63
2018-03-29T08:04:28.295Z,1.59
2018-03-29T08:06:54.129Z,1.77
2018-03-29T08:09:19.917Z,1.71
2018-03-29T08:11:45.763Z,2.29
2018-03-29T08:14:11.576Z,2.56
2018-03-29T08:16:37.372Z,2.00
2018-03-29T08:19:03.172Z,1.97
2018-03-29T08:21:29.018Z,1.90
2018-03-29T08:23:54.804Z,1.99
2018-03-29T08:26:20.587Z,2.05
2018-03-29T08:28:46.407Z,1.95
2018-03-29T08:31:12.225Z,2.01
2018-03-29T08:33:38.018Z,2.02
2018-03-29T08:36:03.820Z,2.05
2018-03-29T08:38:29.879Z,2.20
2018-03-29T08:40:55.728Z,2.63
2018-03-29T08:43:21.514Z,2.37
2018-03-29T08:45:47.323Z,2.35
2018-03-29T08:48:13.110Z,2.09
2018-03-29T08:50:38.903Z,2.12
2018-03-29T08:53:05.066Z,2.00
2018-03-29T08:55:30.860Z,2.19
2018-03-29T08:57:56.644Z,2.14
2018-03-29T09:00:22.449Z,2.19
2018-03-29T09:02:48.222Z,2.14
2018-03-29T09:05:14.035Z,2.31
2018-03-29T09:07:39.851Z,2.28
2018-03-29T09:10:05.643Z,2.39
2018-03-29T09:12:31.440Z,2.56
2018-03-29T09:14:57.251Z,2.29
2018-03-29T09:17:23.035Z,2.23
2018-03-29T09:19:48.863Z,2.23
2018-03-29T09:22:14.707Z,2.46
2018-03-29T09:24:40.486Z,2.59
2018-03-29T09:27:06.301Z,2.48
2018-03-29T09:29:32.103Z,2.61
2018-03-29T09:31:57.884Z,2.64
2018-03-29T09:34:23.679Z,2.70
2018-03-29T09:36:49.478Z,2.66
2018-03-29T09:39:15.267Z,2.85
2018-03-29T09:41:41.318Z,2.81
2018-03-29T09:44:07.108Z,2.79
2018-03-29T09:46:32.900Z,2.96
2018-03-29T09:48:58.881Z,2.87
2018-03-29T09:51:24.674Z,2.81
2018-03-29T09:53:50.444Z,2.84
2018-03-29T09:56:16.254Z,2.92
2018-03-29T09:58:42.040Z,2.97
2018-03-29T10:01:08.659Z,3.15
2018-03-29T10:03:38.308Z,2.92
2018-03-29T10:06:04.095Z,2.97
2018-03-29T10:08:29.888Z,3.06
2018-03-29T10:10:55.723Z,3.22
2018-03-29T10:13:21.506Z,3.03
2018-03-29T10:15:47.314Z,3.13
2018-03-29T10:18:13.120Z,2.96
2018-03-29T10:20:38.939Z,3.03
2018-03-29T10:23:04.834Z,3.39
2018-03-29T10:25:31.447Z,3.21
2018-03-29T10:27:57.232Z,3.28
2018-03-29T10:30:23.020Z,3.61
2018-03-29T10:32:48.828Z,3.52
2018-03-29T10:35:14.618Z,3.45
2018-03-29T10:37:40.414Z,3.38
2018-03-29T10:40:07.036Z,3.46
2018-03-29T10:42:32.838Z,3.49
2018-03-29T10:44:58.631Z,3.41
2018-03-29T10:47:24.418Z,3.48
2018-03-29T10:49:50.261Z,3.39
2018-03-29T10:52:16.046Z,3.23
2018-03-29T10:54:41.839Z,3.52
2018-03-29T10:57:07.619Z,3.36
2018-03-29T10:59:33.445Z,3.52
2018-03-29T11:01:59.242Z,3.37
2018-03-29T11:04:25.090Z,3.41
2018-03-29T11:06:50.977Z,3.26
2018-03-29T11:09:16.734Z,3.39
2018-03-29T11:11:42.539Z,3.37
2018-03-29T11:14:08.481Z,3.11
2018-03-29T11:16:34.241Z,3.15
2018-03-29T11:19:00.037Z,4.49
2018-03-29T11:21:25.840Z,4.76
2018-03-29T11:23:51.628Z,4.24
2018-03-29T11:26:17.435Z,3.83
2018-03-29T11:28:43.243Z,3.51
2018-03-29T11:31:09.037Z,4.55
2018-03-29T11:33:34.838Z,3.71
2018-03-29T11:36:00.639Z,3.63
2018-03-29T11:38:26.426Z,3.75
2018-03-29T11:40:52.252Z,3.76
2018-03-29T11:43:18.042Z,3.59
2018-03-29T11:45:43.815Z,4.14
2018-03-29T11:48:09.840Z,4.29
2018-03-29T11:50:35.641Z,3.89
2018-03-29T11:53:01.443Z,3.92
2018-03-29T11:55:27.257Z,3.66
2018-03-29T11:57:53.032Z,3.75
2018-03-29T12:00:18.863Z,3.62
2018-03-29T12:02:44.683Z,4.37
2018-03-29T12:05:10.472Z,4.04
2018-03-29T12:07:36.262Z,4.55
2018-03-29T12:10:02.106Z,4.46
2018-03-29T12:12:27.878Z,4.31
2018-03-29T12:14:53.659Z,3.93
2018-03-29T12:17:19.637Z,4.22
2018-03-29T12:19:45.446Z,3.69
2018-03-29T12:22:11.231Z,3.63
2018-03-29T12:24:37.045Z,3.53
2018-03-29T12:27:02.843Z,3.34
2018-03-29T12:29:28.698Z,3.23
2018-03-29T12:31:54.629Z,3.53
2018-03-29T12:34:20.428Z,3.56
2018-03-29T12:36:46.234Z,3.85
2018-03-29T12:39:12.048Z,4.26
2018-03-29T12:41:37.838Z,4.36
2018-03-29T12:44:03.755Z,4.54
2018-03-29T12:46:29.537Z,4.43
2018-03-29T12:48:55.327Z,4.15
2018-03-29T12:51:21.127Z,4.18
2018-03-29T12:53:47.054Z,4.38
2018-03-29T12:56:20.875Z,4.71
2018-03-29T12:58:46.671Z,4.36
2018-03-29T13:01:12.470Z,3.95
2018-03-29T13:03:38.272Z,4.09
2018-03-29T13:06:04.112Z,4.60
2018-03-29T13:08:29.911Z,4.25
2018-03-29T13:10:55.720Z,4.42
2018-03-29T13:13:21.535Z,4.46
2018-03-29T13:15:47.337Z,4.37
2018-03-29T13:18:13.198Z,4.31
2018-03-29T13:20:39.009Z,4.95
2018-03-29T13:23:04.821Z,5.30
2018-03-29T13:25:30.616Z,5.56
2018-03-29T13:27:56.647Z,5.56
2018-03-29T13:30:22.458Z,5.76
2018-03-29T13:32:48.245Z,5.47
2018-03-29T13:35:14.317Z,5.69
2018-03-29T13:37:40.154Z,4.79
2018-03-29T13:40:05.943Z,4.77
2018-03-29T13:42:31.741Z,4.88
2018-03-29T13:44:57.536Z,4.95
2018-03-29T13:47:23.314Z,5.07
2018-03-29T13:49:49.358Z,4.64
2018-03-29T13:52:15.167Z,4.48
2018-03-29T13:54:40.975Z,4.56
2018-03-29T13:57:06.983Z,4.69
2018-03-29T13:59:32.809Z,4.67
2018-03-29T14:01:58.596Z,4.33
2018-03-29T14:04:24.412Z,4.33
2018-03-29T14:06:50.219Z,4.35
2018-03-29T14:09:16.008Z,4.24
2018-03-29T14:11:41.795Z,4.24
2018-03-29T14:14:07.584Z,4.40
2018-03-29T14:16:33.402Z,4.35
2018-03-29T14:18:59.187Z,4.40
2018-03-29T14:21:24.987Z,4.38
2018-03-29T14:23:50.983Z,4.81
2018-03-29T14:26:16.778Z,5.03
2018-03-29T14:28:42.570Z,4.72
2018-03-29T14:31:08.412Z,5.13
2018-03-29T14:33:34.210Z,5.00
2018-03-29T14:36:00.005Z,4.80
2018-03-29T14:55:29.864Z,5.61
2018-03-29T14:57:55.668Z,6.45
2018-03-29T15:00:21.459Z,5.49
2018-03-29T15:02:47.276Z,5.54
2018-03-29T15:05:13.078Z,4.97
2018-03-29T15:07:38.863Z,4.69
2018-03-29T15:10:04.699Z,4.59
2018-03-29T15:12:30.489Z,4.50
2018-03-29T15:14:56.261Z,4.44
2018-03-29T15:17:22.076Z,4.47
2018-03-29T15:19:47.851Z,4.59
2018-03-29T15:22:13.643Z,4.38
2018-03-29T15:24:39.481Z,4.47
2018-03-29T15:27:05.299Z,4.42
2018-03-29T15:29:31.135Z,4.43
2018-03-29T15:31:57.167Z,4.54
2018-03-29T15:34:24.053Z,4.56
2018-03-29T15:36:49.932Z,4.40
2018-03-29T15:39:15.729Z,4.56
2018-03-29T15:41:41.530Z,4.49
2018-03-29T15:44:07.363Z,4.43
2018-03-29T15:46:33.174Z,4.40
2018-03-29T15:48:58.960Z,4.38
2018-03-29T15:51:25.048Z,4.30
2018-03-29T15:53:50.882Z,4.20
2018-03-29T15:56:16.670Z,4.13
2018-03-29T15:58:42.514Z,3.90
2018-03-29T16:01:08.340Z,3.94
2018-03-29T16:03:34.139Z,3.98
2018-03-29T16:05:59.933Z,3.93
2018-03-29T16:08:25.874Z,3.94
2018-03-29T16:10:51.673Z,4.11
2018-03-29T16:13:17.473Z,4.14
2018-03-29T16:15:43.264Z,4.00
2018-03-29T16:18:09.060Z,4.07
2018-03-29T16:20:34.835Z,4.00
2018-03-29T16:23:00.667Z,3.95
2018-03-29T16:25:26.458Z,3.96
2018-03-29T16:27:52.231Z,4.16
2018-03-29T16:30:18.352Z,4.05
2018-03-29T16:32:44.164Z,4.08
2018-03-29T16:35:09.960Z,4.07
2018-03-29T16:37:35.772Z,4.15
2018-03-29T16:40:01.555Z,4.12
2018-03-29T16:42:27.375Z,3.99
2018-03-29T16:44:53.362Z,3.99
2018-03-29T16:47:19.199Z,3.89
2018-03-29T16:49:44.999Z,4.03
2018-03-29T16:52:10.874Z,3.96
2018-03-29T16:54:37.634Z,3.92
2018-03-29T16:57:03.443Z,3.85
2018-03-29T16:59:30.310Z,3.95
2018-03-29T17:01:56.122Z,3.85
2018-03-29T17:04:22.009Z,3.84
2018-03-29T17:06:47.831Z,3.73
2018-03-29T17:09:13.632Z,3.66
2018-03-29T17:11:39.429Z,3.66
2018-03-29T17:14:06.297Z,3.64
2018-03-29T17:16:32.168Z,3.79
2018-03-29T17:18:58.494Z,3.73
2018-03-29T17:21:25.122Z,3.71
2018-03-29T17:23:50.945Z,3.56
2018-03-29T17:26:17.659Z,3.55
2018-03-29T17:28:43.461Z,3.50
2018-03-29T17:31:10.215Z,3.24
2018-03-29T17:33:36.016Z,3.41
2018-03-29T17:36:01.938Z,3.33
2018-03-29T17:38:27.750Z,3.33
2018-03-29T17:40:53.712Z,3.21
2018-03-29T17:43:19.624Z,3.14
2018-03-29T17:45:45.470Z,3.13
2018-03-29T17:48:11.287Z,3.12
2018-03-29T17:50:37.424Z,3.15
2018-03-29T17:53:03.224Z,3.02
2018-03-29T17:55:29.327Z,2.97
2018-03-29T17:57:55.247Z,2.87
2018-03-29T18:00:21.429Z,3.04
2018-03-29T18:02:47.242Z,2.92
2018-03-29T18:05:13.071Z,2.90
2018-03-29T18:07:43.449Z,2.85
2018-03-29T18:10:09.530Z,2.87
2018-03-29T18:12:36.583Z,2.83
2018-03-29T18:15:02.429Z,6.00
2018-03-29T18:17:28.348Z,5.84
2018-03-29T18:19:54.147Z,6.23
2018-03-29T18:22:20.008Z,5.98
2018-03-29T18:24:46.810Z,5.65
2018-03-29T18:27:12.699Z,6.36
2018-03-29T18:29:38.514Z,6.17
2018-03-29T18:32:04.334Z,5.61
2018-03-29T18:34:30.152Z,6.25
2018-03-29T18:36:56.022Z,5.43
2018-03-29T18:39:21.863Z,4.84
2018-03-29T18:41:47.704Z,5.68
2018-03-29T18:44:13.523Z,5.75
2018-03-29T18:46:39.368Z,3.81
2018-03-29T18:49:05.383Z,3.28
2018-03-29T18:51:31.203Z,3.11
2018-03-29T18:53:57.010Z,2.99
2018-03-29T18:56:22.880Z,3.01
2018-03-29T18:58:48.665Z,3.08
2018-03-29T19:01:14.474Z,2.94
2018-03-29T19:03:40.311Z,2.74
2018-03-29T19:06:06.122Z,2.80
2018-03-29T19:08:32.000Z,2.87
2018-03-29T19:10:57.841Z,2.65
2018-03-29T19:13:23.648Z,2.51
2018-03-29T19:15:49.449Z,2.59
2018-03-29T19:18:15.304Z,2.55
2018-03-29T19:20:41.152Z,2.54
2018-03-29T19:23:07.019Z,2.53
2018-03-29T19:25:39.891Z,2.53
2018-03-29T19:28:05.710Z,2.62
2018-03-29T19:30:31.564Z,2.60
2018-03-29T19:32:57.663Z,2.64
2018-03-29T19:35:23.482Z,2.61
2018-03-29T19:37:49.296Z,2.60
2018-03-29T19:40:15.228Z,2.59
2018-03-29T19:42:41.058Z,2.56
2018-03-29T19:45:07.031Z,2.59
2018-03-29T19:47:32.921Z,2.49
2018-03-29T19:49:58.760Z,2.40
2018-03-29T19:52:24.591Z,2.39
2018-03-29T19:54:50.412Z,2.45
2018-03-29T19:57:16.583Z,2.37
2018-03-29T19:59:42.435Z,2.43
2018-03-29T20:02:08.274Z,2.34
2018-03-29T20:04:34.137Z,2.38
2018-03-29T20:07:00.236Z,2.36
2018-03-29T20:09:26.050Z,2.26
2018-03-29T20:11:51.903Z,2.25
2018-03-29T20:14:17.759Z,2.25
2018-03-29T20:16:43.678Z,2.23
2018-03-29T20:19:09.469Z,2.20
2018-03-29T20:21:35.314Z,2.16
2018-03-29T20:24:01.260Z,1.92
2018-03-29T20:26:27.112Z,1.89
2018-03-29T20:28:53.020Z,1.87
2018-03-29T20:31:18.843Z,1.86
2018-03-29T20:33:44.664Z,1.94
2018-03-29T20:36:10.502Z,1.85
2018-03-29T20:38:36.324Z,1.86
2018-03-29T20:41:02.162Z,1.80
2018-03-29T20:43:28.037Z,1.72
2018-03-29T20:45:53.858Z,1.61
2018-03-29T20:48:19.668Z,1.52
2018-03-29T20:50:45.459Z,1.47
2018-03-29T20:53:11.249Z,1.41
2018-03-29T20:55:37.025Z,1.40
2018-03-29T20:58:03.826Z,1.43
2018-03-29T21:00:29.866Z,1.37
2018-03-29T21:02:55.657Z,1.43
2018-03-29T21:05:21.829Z,1.46
2018-03-29T21:07:47.644Z,1.29
2018-03-29T21:10:13.449Z,1.26
2018-03-29T21:12:39.409Z,1.19
2018-03-29T21:15:05.235Z,1.08
2018-03-29T21:17:31.035Z,1.12
2018-03-29T21:19:56.875Z,1.13
2018-03-29T21:22:22.741Z,1.17
2018-03-29T21:24:48.495Z,1.11
2018-03-29T21:27:14.386Z,1.03
2018-03-29T21:29:40.180Z,1.08
2018-03-29T21:32:05.960Z,1.01
2018-03-29T21:34:32.094Z,0.95
2018-03-29T21:36:57.844Z,1.09
2018-03-29T21:39:23.644Z,1.05
2018-03-29T21:41:49.431Z,1.11
2018-03-29T21:44:15.233Z,0.94
2018-03-29T21:46:41.071Z,0.87
2018-03-29T21:49:07.061Z,0.96
2018-03-29T21:51:32.878Z,0.88
2018-03-29T21:53:58.665Z,0.96
2018-03-29T21:56:24.722Z,0.97
2018-03-29T21:58:50.516Z,0.83
2018-03-29T22:01:16.383Z,0.85
2018-03-29T22:03:42.154Z,0.80
2018-03-29T22:06:07.936Z,0.87
2018-03-29T22:08:33.731Z,0.97
2018-03-29T22:11:00.657Z,1.04
2018-03-29T22:13:26.483Z,1.02
2018-03-29T22:15:52.266Z,0.83
2018-03-29T22:18:18.076Z,0.75
2018-03-29T22:20:43.869Z,0.74
2018-03-29T22:23:09.666Z,0.74
2018-03-29T22:25:35.735Z,0.73
2018-03-29T22:28:01.532Z,0.65
2018-03-29T22:30:27.327Z,0.62
2018-03-29T22:32:53.439Z,0.56
2018-03-29T22:35:19.248Z,0.45
2018-03-29T22:37:45.038Z,0.39
2018-03-29T22:40:11.088Z,0.44
2018-03-29T22:42:36.883Z,0.46
2018-03-29T22:45:02.708Z,0.57
2018-03-29T22:47:28.577Z,0.61
2018-03-29T22:49:54.370Z,0.56
2018-03-29T22:52:20.165Z,0.45
2018-03-29T22:54:45.974Z,0.37
2018-03-29T22:57:11.787Z,0.31
2018-03-29T22:59:37.607Z,0.26
2018-03-29T23:02:03.432Z,0.45
2018-03-29T23:04:29.223Z,0.62
2018-03-29T23:06:55.013Z,0.34
2018-03-29T23:09:20.803Z,0.29
2018-03-29T23:11:46.616Z,0.35
2018-03-29T23:14:12.399Z,0.40
2018-03-29T23:16:38.207Z,0.36
2018-03-29T23:19:04.044Z,0.13
2018-03-29T23:21:29.843Z,0.14
2018-03-29T23:23:55.636Z,0.24
2018-03-29T23:26:21.592Z,0.30
2018-03-29T23:28:47.396Z,0.06
2018-03-29T23:31:13.195Z,-0.04
2018-03-29T23:33:38.996Z,0.19
2018-03-29T23:36:04.778Z,0.25
2018-03-29T23:38:30.583Z,0.17
2018-03-29T23:40:56.379Z,0.14
2018-03-29T23:43:22.230Z,0.20
2018-03-29T23:45:48.027Z,0.07
2018-03-29T23:48:13.823Z,0.11
2018-03-29T23:50:39.622Z,0.85
2018-03-29T23:53:05.425Z,1.20
2018-03-29T23:55:31.210Z,0.64
2018-03-29T23:58:09.487Z,0.62
